Time;durP1;ratioP1;P1;durP2;ratioP2;P2;SDS_P1;SDS_P2;PMS_P1;PMS_P2;Temp;Humidity;BMP_temperature;BMP_pressure;BME280_temperature;BME280_humidity;BME280_pressure;Samples;Min_cycle;Max_cycle;Signal;HPM_P1;HPM_P2
2020/12/07 00:41:46;;;;;;;6.85;4.10;;;3.30;99.90;;;;;;4999193;28;20437;-87
2020/12/07 00:44:11;;;;;;;7.13;4.30;;;3.30;99.90;;;;;;5001395;28;20042;-88
2020/12/07 00:46:51;;;;;;;6.55;3.88;;;3.20;99.90;;;;;;4998959;28;20045;-88
2020/12/07 00:49:17;;;;;;;7.47;4.25;;;3.30;99.90;;;;;;4999755;28;20041;-87
2020/12/07 00:51:42;;;;;;;4.18;2.88;;;3.30;99.90;;;;;;4998299;28;20046;-87
2020/12/07 00:54:08;;;;;;;5.05;3.22;;;3.30;99.90;;;;;;4995067;28;20130;-87
2020/12/07 00:56:33;;;;;;;5.28;3.50;;;3.30;99.90;;;;;;5001321;28;20084;-87
2020/12/07 00:58:59;;;;;;;10.27;3.78;;;3.30;99.90;;;;;;5006567;28;20034;-87
2020/12/07 01:01:25;;;;;;;7.50;3.72;;;3.30;99.90;;;;;;5017476;28;20048;-86
2020/12/07 01:04:01;;;;;;;6.25;3.15;;;3.30;99.90;;;;;;5017000;28;20041;-86
2020/12/07 01:06:28;;;;;;;6.20;3.40;;;3.30;99.90;;;;;;5018800;28;20038;-86
2020/12/07 01:36:32;;;;;;;5.00;3.20;;;3.20;99.90;;;;;;4963443;28;20151;-85
2020/12/07 01:39:05;;;;;;;4.70;2.97;;;3.20;99.90;;;;;;4942028;28;20047;-87
2020/12/07 01:42:02;;;;;;;6.82;3.40;;;3.20;99.90;;;;;;4946676;28;20499;-87
2020/12/07 01:44:30;;;;;;;6.32;3.40;;;3.20;99.90;;;;;;4990192;28;20037;-86
2020/12/07 01:46:56;;;;;;;5.15;2.90;;;3.20;99.90;;;;;;4999445;28;20029;-86
2020/12/07 01:49:22;;;;;;;10.45;3.13;;;3.20;99.90;;;;;;5015639;28;20054;-87
2020/12/07 01:51:48;;;;;;;6.90;3.13;;;3.20;99.90;;;;;;5023139;28;20065;-87
2020/12/07 01:54:14;;;;;;;4.00;2.95;;;3.20;99.90;;;;;;5018514;28;20046;-87
2020/12/07 01:56:40;;;;;;;6.55;3.20;;;3.20;99.90;;;;;;5018395;28;20069;-87
2020/12/07 01:59:05;;;;;;;6.35;3.10;;;3.20;99.90;;;;;;5022553;28;20042;-87
2020/12/07 02:01:36;;;;;;;5.47;2.50;;;3.20;99.90;;;;;;5019465;28;20064;-87
2020/12/07 02:04:02;;;;;;;7.53;3.15;;;3.20;99.90;;;;;;5017418;28;20109;-87
2020/12/07 02:06:28;;;;;;;5.38;3.38;;;3.20;99.90;;;;;;5016481;28;20136;-87
2020/12/07 02:08:53;;;;;;;6.20;3.42;;;3.20;99.90;;;;;;5011826;28;20034;-87
2020/12/07 02:11:19;;;;;;;5.00;3.00;;;3.20;99.90;;;;;;5019853;28;20137;-87
2020/12/07 02:13:45;;;;;;;4.97;2.70;;;3.20;99.90;;;;;;5020391;28;20055;-86
2020/12/07 02:16:11;;;;;;;4.85;3.13;;;3.20;99.90;;;;;;5021325;28;20615;-86
2020/12/07 02:18:37;;;;;;;11.52;3.92;;;3.20;99.90;;;;;;5020639;28;20034;-86
2020/12/07 02:21:03;;;;;;;6.40;3.45;;;3.20;99.90;;;;;;5018779;28;20072;-85
2020/12/07 02:23:28;;;;;;;9.60;3.60;;;3.20;99.90;;;;;;5025228;28;20124;-87
2020/12/07 02:25:54;;;;;;;5.75;3.42;;;3.20;99.90;;;;;;5055349;28;20026;-87
2020/12/07 02:28:19;;;;;;;8.38;3.63;;;3.20;99.90;;;;;;5041963;28;20038;-84
2020/12/07 02:30:45;;;;;;;6.72;3.58;;;3.20;99.90;;;;;;5042576;28;20480;-85
2020/12/07 02:33:10;;;;;;;8.13;4.00;;;3.20;99.90;;;;;;5027731;28;20042;-85
2020/12/07 02:35:36;;;;;;;6.22;4.00;;;3.20;99.90;;;;;;5040160;28;20037;-86
2020/12/07 02:38:02;;;;;;;6.88;3.58;;;3.30;99.90;;;;;;5041958;28;20041;-86
2020/12/07 02:40:27;;;;;;;5.85;3.70;;;3.20;99.90;;;;;;5036034;28;20033;-86
2020/12/07 02:42:53;;;;;;;6.13;3.67;;;3.30;99.90;;;;;;5031692;28;20442;-86
2020/12/07 02:45:19;;;;;;;5.30;3.67;;;3.30;99.90;;;;;;5029848;28;20399;-86
2020/12/07 02:47:45;;;;;;;6.10;3.28;;;3.30;99.90;;;;;;5024194;28;20042;-85
2020/12/07 02:50:12;;;;;;;6.95;4.07;;;3.30;99.90;;;;;;5022613;28;20096;-87
2020/12/07 02:52:38;;;;;;;5.28;3.33;;;3.30;99.90;;;;;;5038615;28;20049;-85
2020/12/07 02:55:06;;;;;;;6.80;3.60;;;3.30;99.90;;;;;;5023004;28;20453;-86
2020/12/07 02:57:32;;;;;;;7.43;3.38;;;3.30;99.90;;;;;;5024228;28;20507;-86
2020/12/07 02:59:57;;;;;;;5.88;3.53;;;3.30;99.90;;;;;;5018488;28;20482;-85
2020/12/07 03:02:23;;;;;;;5.32;3.38;;;3.30;99.90;;;;;;5030774;28;20140;-85
2020/12/07 03:04:49;;;;;;;5.07;3.58;;;3.30;99.90;;;;;;5020216;28;20121;-85
2020/12/07 03:07:14;;;;;;;7.05;3.65;;;3.30;99.90;;;;;;5017810;28;20094;-85
2020/12/07 03:09:40;;;;;;;4.72;3.40;;;3.30;99.90;;;;;;5016105;28;20380;-86
2020/12/07 03:12:07;;;;;;;5.15;3.00;;;3.30;99.90;;;;;;5016717;28;20156;-87
2020/12/07 03:14:32;;;;;;;3.42;2.47;;;3.30;99.90;;;;;;5018359;28;20042;-87
2020/12/07 03:16:58;;;;;;;4.93;3.13;;;3.30;99.90;;;;;;5016623;28;20052;-86
2020/12/07 03:19:24;;;;;;;5.05;2.70;;;3.30;99.90;;;;;;5030528;28;20040;-86
2020/12/07 03:21:50;;;;;;;5.40;2.92;;;3.30;99.90;;;;;;5032719;28;20037;-88
2020/12/07 03:24:15;;;;;;;4.22;3.03;;;3.30;99.90;;;;;;5027940;28;20052;-89
2020/12/07 03:26:41;;;;;;;5.85;3.00;;;3.30;99.90;;;;;;5026603;28;20072;-87
2020/12/07 03:29:08;;;;;;;4.70;3.17;;;3.20;99.90;;;;;;5031509;28;20034;-89
2020/12/07 03:31:35;;;;;;;5.03;2.85;;;3.20;99.90;;;;;;5023290;28;20421;-87
2020/12/07 03:34:02;;;;;;;6.10;3.60;;;3.20;99.90;;;;;;5016896;28;20056;-89
2020/12/07 03:36:28;;;;;;;4.85;3.28;;;3.20;99.90;;;;;;5012077;28;20120;-87
2020/12/07 03:38:54;;;;;;;4.20;2.97;;;3.20;99.90;;;;;;5039379;28;20061;-87
2020/12/07 03:41:20;;;;;;;5.78;3.55;;;3.20;99.90;;;;;;5018608;28;20096;-87
2020/12/07 03:43:46;;;;;;;3.80;2.78;;;3.20;99.90;;;;;;5036006;28;20072;-87
2020/12/07 03:46:12;;;;;;;7.25;3.45;;;3.20;99.90;;;;;;5033952;28;20133;-87
2020/12/07 03:48:39;;;;;;;6.13;3.60;;;3.30;99.90;;;;;;5020903;28;20076;-87
2020/12/07 03:51:08;;;;;;;5.03;3.15;;;3.30;99.90;;;;;;5022077;28;20042;-88
2020/12/07 03:53:35;;;;;;;5.43;3.38;;;3.30;99.90;;;;;;5017161;28;20041;-88
2020/12/07 03:56:03;;;;;;;12.70;3.50;;;3.20;99.90;;;;;;5023085;28;20038;-92
2020/12/07 03:58:28;;;;;;;4.72;3.45;;;3.20;99.90;;;;;;5016875;28;20132;-89
2020/12/07 04:00:55;;;;;;;6.38;3.20;;;3.20;99.90;;;;;;5015807;28;20181;-89
2020/12/07 04:03:22;;;;;;;4.50;3.10;;;3.10;99.90;;;;;;5037363;28;20034;-88
2020/12/07 04:05:55;;;;;;;12.50;3.53;;;3.10;99.90;;;;;;5026907;28;20375;-88
2020/12/07 04:08:21;;;;;;;5.68;3.30;;;3.10;99.90;;;;;;5034850;28;20038;-89
2020/12/07 04:10:46;;;;;;;7.32;3.10;;;3.10;99.90;;;;;;5044144;28;20087;-88
2020/12/07 04:13:12;;;;;;;5.88;3.70;;;3.10;99.90;;;;;;5024477;28;20056;-90
2020/12/07 04:15:38;;;;;;;5.90;3.20;;;3.10;99.90;;;;;;5017869;28;20029;-89
2020/12/07 04:18:03;;;;;;;4.82;3.25;;;3.10;99.90;;;;;;5021424;28;20071;-89
2020/12/07 04:20:29;;;;;;;5.97;3.10;;;3.10;99.90;;;;;;5033378;28;20505;-88
2020/12/07 04:22:55;;;;;;;6.35;3.70;;;3.10;99.90;;;;;;5015251;28;20037;-88
2020/12/07 04:25:23;;;;;;;5.22;3.33;;;3.10;99.90;;;;;;5014498;28;21081;-88
2020/12/07 04:27:49;;;;;;;5.30;3.08;;;3.10;99.90;;;;;;5027697;28;20042;-88
2020/12/07 04:30:14;;;;;;;7.25;3.85;;;3.10;99.90;;;;;;5015240;28;20076;-88
2020/12/07 04:32:40;;;;;;;6.05;3.53;;;3.20;99.90;;;;;;5022229;28;20080;-87
2020/12/07 04:35:06;;;;;;;5.47;3.20;;;3.20;99.90;;;;;;5025878;28;20046;-88
2020/12/07 04:37:31;;;;;;;6.05;3.33;;;3.20;99.90;;;;;;5009147;28;20124;-87
2020/12/07 04:39:57;;;;;;;5.65;3.20;;;3.20;99.90;;;;;;5019433;28;20141;-88
2020/12/07 04:42:24;;;;;;;5.03;2.85;;;3.20;99.90;;;;;;5021592;28;20038;-89
2020/12/07 04:44:49;;;;;;;6.85;2.90;;;3.20;99.90;;;;;;5013537;28;20061;-89
2020/12/07 04:47:19;;;;;;;3.88;2.72;;;3.30;99.90;;;;;;5034548;28;20030;-87
2020/12/07 04:49:46;;;;;;;4.35;2.83;;;3.30;99.90;;;;;;5017414;28;20518;-88
2020/12/07 04:52:14;;;;;;;5.38;3.15;;;3.30;99.90;;;;;;5014570;28;20073;-88
2020/12/07 04:54:46;;;;;;;5.97;3.78;;;3.30;99.90;;;;;;5032520;28;20352;-90
2020/12/07 04:57:14;;;;;;;6.20;3.20;;;3.30;99.90;;;;;;5041026;28;20041;-90
2020/12/07 04:59:41;;;;;;;3.72;2.75;;;3.30;99.90;;;;;;5034202;28;20131;-89
2020/12/07 05:02:07;;;;;;;7.93;2.90;;;3.30;99.90;;;;;;5030347;28;20169;-89
2020/12/07 05:04:35;;;;;;;4.78;3.08;;;3.40;99.90;;;;;;5025015;28;20044;-87
2020/12/07 05:07:02;;;;;;;5.20;3.22;;;3.30;99.90;;;;;;5023769;28;20052;-89
2020/12/07 05:09:29;;;;;;;7.55;3.17;;;3.40;99.90;;;;;;5023181;28;20030;-88
2020/12/07 05:11:57;;;;;;;4.72;3.15;;;3.40;99.90;;;;;;5020675;28;20543;-88
2020/12/07 05:14:22;;;;;;;4.50;2.85;;;3.40;99.90;;;;;;5021769;28;20373;-87
2020/12/07 05:16:49;;;;;;;7.57;3.13;;;3.40;99.90;;;;;;5020261;28;20518;-87
2020/12/07 05:19:19;;;;;;;8.95;3.60;;;3.40;99.90;;;;;;5026167;28;20555;-87
2020/12/07 05:21:45;;;;;;;5.43;3.22;;;3.40;99.90;;;;;;5012955;28;20044;-87
2020/12/07 05:24:10;;;;;;;7.68;3.80;;;3.40;99.90;;;;;;5016376;28;20469;-91
2020/12/07 05:26:36;;;;;;;6.50;3.42;;;3.40;99.90;;;;;;5037531;28;20502;-87
2020/12/07 05:29:07;;;;;;;7.65;3.10;;;3.40;99.90;;;;;;5013574;28;20436;-88
2020/12/07 05:32:34;;;;;;;;;;;;;;;;;;;;;
2020/12/07 05:35:07;;;;;;;8.95;3.53;;;3.40;99.90;;;;;;5006651;28;21145;-89
2020/12/07 05:37:37;;;;;;;8.63;3.50;;;3.40;99.90;;;;;;5040009;28;20041;-88
2020/12/07 05:40:05;;;;;;;7.97;3.63;;;3.40;99.90;;;;;;5026235;28;20050;-87
2020/12/07 05:42:31;;;;;;;6.45;3.53;;;3.40;99.90;;;;;;5035056;28;20064;-87
2020/12/07 05:44:58;;;;;;;9.68;4.28;;;3.40;99.90;;;;;;5031054;28;20049;-87
2020/12/07 05:47:24;;;;;;;5.63;3.22;;;3.00;99.90;;;;;;5022009;28;20037;-87
2020/12/07 05:49:52;;;;;;;7.82;3.40;;;3.40;99.90;;;;;;5014907;28;20033;-87
2020/12/07 05:52:33;;;;;;;7.63;4.05;;;3.50;99.90;;;;;;5017847;28;20091;-87
2020/12/07 05:55:01;;;;;;;8.20;3.63;;;3.50;99.90;;;;;;5019517;28;20045;-86
2020/12/07 05:57:29;;;;;;;8.32;3.95;;;3.50;99.90;;;;;;5020361;28;20490;-87
2020/12/07 06:00:00;;;;;;;9.23;4.38;;;3.50;99.90;;;;;;5016801;28;20041;-87
2020/12/07 06:02:27;;;;;;;7.78;4.03;;;3.50;99.90;;;;;;5016960;28;20061;-88
2020/12/07 06:04:53;;;;;;;7.53;3.97;;;3.50;99.90;;;;;;5013809;28;20046;-87
2020/12/07 06:07:23;;;;;;;8.52;4.10;;;3.50;99.90;;;;;;5016473;28;20061;-87
2020/12/07 06:09:50;;;;;;;12.05;4.45;;;3.50;99.90;;;;;;5022254;28;20403;-87
2020/12/07 06:12:27;;;;;;;7.97;4.65;;;3.50;99.90;;;;;;5024701;28;20050;-86
2020/12/07 06:14:53;;;;;;;9.13;4.15;;;3.50;99.90;;;;;;5024149;28;20049;-86
2020/12/07 06:17:29;;;;;;;10.40;4.10;;;3.40;99.90;;;;;;5022039;28;20038;-86
2020/12/07 06:19:55;;;;;;;9.07;4.57;;;3.40;99.90;;;;;;5020586;28;20061;-86
2020/12/07 06:22:22;;;;;;;9.18;4.05;;;3.40;99.90;;;;;;5025866;28;20037;-84
2020/12/07 06:24:50;;;;;;;10.13;4.80;;;3.30;99.90;;;;;;5022646;28;20041;-84
2020/12/07 06:27:16;;;;;;;9.23;4.88;;;3.30;99.90;;;;;;5037291;28;20100;-83
2020/12/07 06:29:59;;;;;;;6.93;4.43;;;3.30;99.90;;;;;;5032487;28;20537;-83
2020/12/07 06:32:44;;;;;;;10.48;4.97;;;3.40;99.90;;;;;;5031283;28;20045;-81
2020/12/07 06:35:10;;;;;;;;;;;3.30;99.90;;;;;;5012903;28;20038;-82
2020/12/07 06:37:41;;;;;;;9.68;5.40;;;3.30;99.90;;;;;;5008477;28;19941;-80
2020/12/07 06:40:07;;;;;;;11.35;5.43;;;3.30;99.90;;;;;;5023250;28;20119;-81
2020/12/07 06:42:39;;;;;;;10.50;5.13;;;3.30;99.90;;;;;;5011807;28;20657;-81
2020/12/07 06:45:07;;;;;;;9.48;4.35;;;3.30;99.90;;;;;;5011276;28;20099;-82
2020/12/07 06:47:33;;;;;;;9.55;5.47;;;3.30;99.90;;;;;;5012256;28;20132;-82
2020/12/07 06:50:18;;;;;;;8.95;4.70;;;3.30;99.90;;;;;;5012506;28;20537;-82
2020/12/07 06:52:45;;;;;;;12.10;5.30;;;3.30;99.90;;;;;;5029345;28;20046;-81
2020/12/07 06:55:15;;;;;;;8.75;4.93;;;3.30;99.90;;;;;;5013735;28;20042;-81
2020/12/07 06:57:51;;;;;;;13.98;5.75;;;3.30;99.90;;;;;;5014870;28;20068;-81
2020/12/07 07:00:21;;;;;;;6.88;4.43;;;3.40;99.90;;;;;;5020253;28;20044;-81
2020/12/07 07:02:48;;;;;;;8.07;4.32;;;3.30;99.90;;;;;;5018588;28;20037;-82
2020/12/07 07:05:20;;;;;;;11.00;4.80;;;3.30;99.90;;;;;;5024920;28;20034;-82
2020/12/07 07:07:47;;;;;;;9.82;4.95;;;3.30;99.90;;;;;;5012357;28;20045;-81
2020/12/07 07:10:14;;;;;;;9.70;5.22;;;3.20;99.90;;;;;;5034221;28;20045;-82
2020/12/07 07:12:42;;;;;;;9.02;5.20;;;3.40;99.90;;;;;;5016705;28;20406;-82
2020/12/07 07:15:08;;;;;;;8.38;4.68;;;3.50;99.90;;;;;;5014733;28;20531;-80
2020/12/07 07:17:37;;;;;;;8.70;4.88;;;3.40;99.90;;;;;;5013160;28;20047;-81
2020/12/07 07:20:10;;;;;;;9.25;4.88;;;3.50;99.90;;;;;;5000929;28;20422;-81
2020/12/07 07:22:40;;;;;;;9.30;5.25;;;3.50;99.90;;;;;;5015508;28;20679;-82
2020/12/07 07:30:16;;;;;;;;;;;3.50;99.90;;;;;;5036212;28;20165;-82
2020/12/07 07:32:44;;;;;;;13.48;5.82;;;3.60;99.90;;;;;;5039629;28;19919;-80
2020/12/07 07:35:11;;;;;;;14.02;6.47;;;3.70;99.90;;;;;;5026809;28;20041;-81
2020/12/07 07:37:38;;;;;;;12.60;6.43;;;3.70;99.90;;;;;;5018257;28;20084;-80
2020/12/07 07:40:08;;;;;;;15.40;6.97;;;3.70;99.90;;;;;;5018292;28;20093;-80
2020/12/07 07:42:40;;;;;;;11.32;6.18;;;3.60;99.90;;;;;;5020764;28;20046;-82
2020/12/07 07:45:06;;;;;;;11.55;6.35;;;3.80;99.90;;;;;;5022827;28;20049;-81
2020/12/07 07:47:39;;;;;;;16.17;6.25;;;3.80;99.90;;;;;;5021021;28;20136;-82
2020/12/07 08:12:56;;;;;;;11.43;5.68;;;4.00;99.90;;;;;;5020607;28;20550;-81
2020/12/07 08:15:31;;;;;;;9.90;5.25;;;4.10;99.90;;;;;;5006711;28;20084;-80
2020/12/07 08:17:59;;;;;;;9.40;5.40;;;4.20;99.90;;;;;;5022808;28;20560;-81
2020/12/07 08:20:49;;;;;;;8.82;5.47;;;4.20;99.90;;;;;;5018752;28;20108;-82
2020/12/07 08:23:31;;;;;;;11.02;5.15;;;4.30;99.90;;;;;;4996342;28;20045;-82
2020/12/07 08:26:20;;;;;;;8.80;5.13;;;4.40;99.90;;;;;;5013144;28;20045;-83
2020/12/07 08:28:49;;;;;;;8.52;4.75;;;4.40;99.90;;;;;;5029964;28;20121;-82
2020/12/07 08:31:28;;;;;;;11.10;6.00;;;4.60;99.90;;;;;;5019750;28;20077;-82
2020/12/07 08:34:00;;;;;;;9.50;4.90;;;4.70;99.90;;;;;;5033851;28;20119;-81
2020/12/07 08:36:53;;;;;;;8.20;4.65;;;4.70;99.90;;;;;;4981347;28;20059;-81
2020/12/07 08:39:19;;;;;;;9.52;4.60;;;4.60;99.90;;;;;;5016546;28;20029;-80
2020/12/07 08:41:44;;;;;;;9.27;4.18;;;4.60;99.90;;;;;;5018448;28;20048;-81
2020/12/07 08:44:10;;;;;;;10.15;4.85;;;4.70;99.90;;;;;;5028764;28;20041;-81
2020/12/07 08:46:56;;;;;;;8.52;4.75;;;4.70;99.90;;;;;;5030825;28;20439;-80
2020/12/07 08:49:29;;;;;;;8.48;4.53;;;4.70;99.90;;;;;;5007781;28;20048;-80
2020/12/07 08:51:55;;;;;;;8.40;4.47;;;4.80;99.90;;;;;;4998804;28;20030;-79
2020/12/07 08:54:32;;;;;;;7.28;4.70;;;4.90;99.90;;;;;;5016070;28;20059;-82
2020/12/07 08:57:24;;;;;;;8.85;4.47;;;4.90;99.90;;;;;;5020076;28;20271;-80
2020/12/07 09:03:02;;;;;;;9.60;4.25;;;4.90;99.90;;;;;;5006097;28;20515;-80
2020/12/07 09:05:37;;;;;;;8.18;4.50;;;4.90;99.90;;;;;;5020466;28;20038;-81
2020/12/07 09:08:04;;;;;;;9.23;4.20;;;5.00;99.90;;;;;;5032028;28;20056;-80
2020/12/07 09:10:29;;;;;;;6.90;3.80;;;5.00;99.90;;;;;;5019154;28;20022;-81
2020/12/07 09:12:58;;;;;;;12.45;5.38;;;5.00;99.90;;;;;;5007416;28;20049;-80
2020/12/07 09:15:34;;;;;;;9.50;3.95;;;5.00;99.90;;;;;;5010380;28;20105;-81
2020/12/07 09:18:07;;;;;;;6.32;3.75;;;5.10;99.90;;;;;;5006294;28;20606;-81
2020/12/07 09:23:39;;;;;;;11.25;4.07;;;5.40;99.90;;;;;;4993262;28;20042;-81
2020/12/07 09:26:05;;;;;;;8.68;4.05;;;5.50;99.90;;;;;;4999875;28;20092;-81
2020/12/07 09:28:31;;;;;;;6.65;3.80;;;5.40;99.90;;;;;;5004449;28;20050;-83
2020/12/07 09:30:57;;;;;;;7.22;3.97;;;5.40;99.90;;;;;;5032208;28;20490;-79
2020/12/07 09:34:07;;;;;;;7.55;4.50;;;5.50;99.90;;;;;;5014694;28;20220;-80
2020/12/07 09:36:32;;;;;;;6.82;4.03;;;5.30;99.90;;;;;;4980460;28;20061;-80
2020/12/07 09:39:03;;;;;;;8.93;4.85;;;5.30;99.90;;;;;;5000238;28;20072;-79
2020/12/07 09:41:29;;;;;;;8.73;4.40;;;5.30;99.90;;;;;;4997291;28;20053;-80
2020/12/07 09:43:54;;;;;;;8.15;4.18;;;5.50;99.90;;;;;;5025233;28;20084;-80
2020/12/07 09:46:23;;;;;;;6.82;3.88;;;5.40;99.90;;;;;;5032075;28;20030;-80
2020/12/07 09:48:54;;;;;;;9.05;4.30;;;5.50;99.90;;;;;;5007011;28;20053;-80
2020/12/07 09:51:19;;;;;;;5.07;3.40;;;5.60;99.90;;;;;;5037891;28;20061;-81
2020/12/07 09:53:45;;;;;;;8.48;4.03;;;5.80;99.90;;;;;;5035533;28;20552;-81
2020/12/07 09:56:34;;;;;;;8.05;4.00;;;5.90;99.90;;;;;;5020823;28;20046;-82
2020/12/07 09:58:59;;;;;;;7.68;4.00;;;6.00;99.90;;;;;;4985374;28;20101;-80
2020/12/07 10:01:25;;;;;;;8.82;4.25;;;6.00;99.90;;;;;;5018005;28;20526;-79
2020/12/07 10:03:50;;;;;;;8.15;3.85;;;6.10;99.90;;;;;;5018572;28;20092;-80
2020/12/07 10:06:16;;;;;;;7.28;4.43;;;6.20;99.90;;;;;;5016225;28;20037;-79
2020/12/07 10:08:41;;;;;;;7.10;3.78;;;6.40;99.90;;;;;;5016827;28;20041;-80
2020/12/07 10:11:07;;;;;;;8.82;3.85;;;6.40;99.90;;;;;;5021112;28;20041;-79
2020/12/07 10:13:32;;;;;;;7.38;3.35;;;6.50;99.90;;;;;;5018950;28;20034;-80
2020/12/07 10:15:58;;;;;;;9.05;4.22;;;6.40;99.20;;;;;;5014947;28;20041;-79
2020/12/07 10:18:23;;;;;;;9.00;2.90;;;6.40;99.40;;;;;;5012903;28;20038;-81
2020/12/07 10:20:49;;;;;;;4.22;2.97;;;6.40;99.70;;;;;;5014408;28;21569;-81
2020/12/07 10:23:16;;;;;;;7.13;3.80;;;6.50;98.50;;;;;;5015172;28;20110;-81
2020/12/07 10:25:48;;;;;;;5.90;3.00;;;6.60;99.90;;;;;;5013647;28;20037;-82
2020/12/07 10:28:14;;;;;;;10.73;3.67;;;6.50;95.70;;;;;;5016772;28;20389;-81
2020/12/07 10:30:39;;;;;;;8.60;3.22;;;6.60;97.50;;;;;;5022219;28;20057;-81
2020/12/07 10:33:05;;;;;;;6.28;3.00;;;6.80;99.90;;;;;;5014747;28;20394;-81
2020/12/07 10:35:30;;;;;;;5.93;3.30;;;6.90;99.80;;;;;;5012983;28;20046;-81
2020/12/07 10:37:56;;;;;;;5.85;3.20;;;6.80;98.10;;;;;;5027840;28;20087;-81
2020/12/07 10:40:21;;;;;;;4.85;2.72;;;6.80;97.60;;;;;;5012470;28;20502;-81
2020/12/07 10:42:47;;;;;;;5.65;2.78;;;6.90;95.20;;;;;;5005785;28;20049;-79
2020/12/07 10:45:12;;;;;;;6.88;2.97;;;7.10;96.30;;;;;;5011949;28;20034;-81
2020/12/07 10:47:38;;;;;;;4.03;2.67;;;7.20;95.40;;;;;;5009153;28;20053;-81
2020/12/07 10:50:03;;;;;;;5.00;2.72;;;7.20;92.90;;;;;;5012356;28;20041;-81
2020/12/07 10:52:29;;;;;;;5.03;2.33;;;7.20;93.40;;;;;;5023099;28;20041;-82
2020/12/07 10:54:55;;;;;;;4.95;3.05;;;7.30;92.80;;;;;;5012541;28;20049;-80
2020/12/07 10:57:20;;;;;;;6.93;2.53;;;7.10;90.80;;;;;;5010067;28;20399;-82
2020/12/07 10:59:46;;;;;;;4.93;2.65;;;7.10;92.00;;;;;;5009876;28;20137;-82
2020/12/07 11:02:11;;;;;;;7.38;3.15;;;7.10;92.20;;;;;;5006419;28;20042;-81
2020/12/07 11:04:37;;;;;;;7.65;3.05;;;7.00;92.10;;;;;;5011416;28;20034;-81
2020/12/07 11:07:07;;;;;;;5.22;2.70;;;7.00;92.30;;;;;;4995385;28;20046;-81
2020/12/07 11:09:34;;;;;;;4.93;2.75;;;7.00;91.40;;;;;;5011197;28;20605;-81
2020/12/07 11:12:00;;;;;;;5.78;2.67;;;7.10;91.90;;;;;;5023920;28;20052;-82
2020/12/07 11:14:26;;;;;;;4.88;2.38;;;6.80;92.30;;;;;;5016014;28;20061;-81
2020/12/07 11:16:51;;;;;;;5.50;3.15;;;6.50;91.40;;;;;;5014342;28;20085;-80
2020/12/07 11:19:17;;;;;;;5.63;3.05;;;6.50;92.80;;;;;;5015402;28;20040;-82
2020/12/07 11:21:44;;;;;;;5.15;2.97;;;6.40;92.20;;;;;;5016231;28;20037;-82
2020/12/07 11:24:10;;;;;;;6.05;3.40;;;6.40;92.10;;;;;;5019989;28;20041;-85
2020/12/07 11:26:35;;;;;;;8.20;3.85;;;6.40;92.40;;;;;;5022214;28;20034;-81
2020/12/07 11:29:01;;;;;;;6.28;3.00;;;6.50;92.30;;;;;;5025597;28;20044;-81
2020/12/07 11:31:27;;;;;;;12.65;3.40;;;6.70;94.10;;;;;;5030633;28;20069;-80
2020/12/07 11:33:52;;;;;;;5.10;3.03;;;6.60;93.10;;;;;;5020208;28;20034;-81
2020/12/07 11:36:18;;;;;;;6.50;3.38;;;6.50;92.60;;;;;;5025226;28;20045;-83
2020/12/07 11:39:18;;;;;;;5.93;3.03;;;6.70;92.60;;;;;;5027434;28;20533;-83
2020/12/07 11:42:50;;;;;;;3.90;2.85;;;6.90;92.20;;;;;;5029474;28;20053;-82
2020/12/07 11:44:37;;;;;;;14.68;2.42;;;6.70;91.40;;;;;;5014891;28;20482;-82
2020/12/07 11:47:05;;;;;;;3.83;2.33;;;6.80;90.40;;;;;;5030467;28;20057;-82
2020/12/07 11:49:31;;;;;;;3.45;2.22;;;6.90;89.70;;;;;;5036567;28;20059;-84
2020/12/07 11:52:03;;;;;;;5.63;2.30;;;6.80;89.70;;;;;;5034637;28;20105;-80
2020/12/07 11:54:29;;;;;;;9.30;3.03;;;6.90;89.40;;;;;;5022495;28;20029;-80
2020/12/07 11:56:55;;;;;;;4.40;2.47;;;6.90;89.60;;;;;;5023601;28;20048;-81
2020/12/07 11:59:20;;;;;;;3.25;2.33;;;6.80;87.80;;;;;;5018726;28;20164;-81
2020/12/07 12:01:46;;;;;;;9.60;3.35;;;6.80;87.70;;;;;;5022550;28;20033;-82
2020/12/07 12:04:11;;;;;;;5.05;3.13;;;6.70;87.90;;;;;;5025184;28;20684;-80
2020/12/07 12:06:38;;;;;;;5.32;2.60;;;6.90;90.20;;;;;;5021389;28;20154;-80
2020/12/07 12:09:07;;;;;;;5.40;2.55;;;7.10;88.70;;;;;;5022347;28;20161;-79
2020/12/07 12:11:34;;;;;;;5.80;2.28;;;7.00;86.10;;;;;;5027746;28;20123;-78
2020/12/07 12:14:01;;;;;;;3.33;2.13;;;6.90;84.80;;;;;;5022489;28;20084;-80
2020/12/07 12:16:28;;;;;;;5.75;1.73;;;6.70;82.90;;;;;;5032948;28;20046;-79
2020/12/07 12:18:58;;;;;;;4.30;1.90;;;6.70;84.70;;;;;;5037622;28;20026;-79
2020/12/07 12:21:28;;;;;;;6.53;2.05;;;6.80;84.40;;;;;;5038474;28;20117;-79
2020/12/07 12:23:53;;;;;;;2.03;1.67;;;6.70;85.00;;;;;;5023592;28;20172;-78
2020/12/07 12:26:20;;;;;;;4.07;1.77;;;6.70;84.50;;;;;;5034787;28;20144;-79
2020/12/07 12:28:47;;;;;;;9.70;2.40;;;6.70;84.60;;;;;;5033863;28;20635;-79
2020/12/07 12:31:13;;;;;;;3.38;1.70;;;6.70;85.20;;;;;;5025935;28;20052;-79
2020/12/07 12:33:39;;;;;;;5.05;2.17;;;6.70;83.80;;;;;;5030640;28;20034;-79
2020/12/07 12:36:05;;;;;;;2.90;2.03;;;6.60;84.10;;;;;;5029190;28;20041;-78
2020/12/07 12:38:31;;;;;;;7.40;2.33;;;6.40;85.20;;;;;;5025609;28;20037;-79
2020/12/07 12:40:56;;;;;;;8.27;2.88;;;6.40;86.60;;;;;;5020393;28;20053;-79
2020/12/07 12:43:22;;;;;;;4.50;2.33;;;6.50;86.00;;;;;;5020058;28;20049;-79
2020/12/07 12:45:48;;;;;;;3.83;2.55;;;6.50;86.70;;;;;;5015986;28;20116;-79
2020/12/07 12:48:13;;;;;;;3.90;2.35;;;6.40;86.70;;;;;;5031630;28;20037;-78
2020/12/07 12:50:39;;;;;;;12.70;2.65;;;6.50;88.20;;;;;;5025662;28;20589;-78
2020/12/07 12:53:05;;;;;;;5.78;2.65;;;6.50;87.40;;;;;;5019659;28;20037;-79
2020/12/07 12:55:31;;;;;;;3.08;2.05;;;6.40;87.90;;;;;;5016424;28;20489;-79
2020/12/07 12:57:56;;;;;;;4.55;2.45;;;6.40;87.50;;;;;;5018857;28;20449;-79
2020/12/07 13:00:22;;;;;;;5.00;3.30;;;6.30;87.20;;;;;;5034586;28;20046;-79
2020/12/07 13:02:48;;;;;;;8.77;3.42;;;6.10;89.30;;;;;;5025210;28;20100;-80
2020/12/07 13:05:13;;;;;;;8.85;2.78;;;6.10;89.60;;;;;;5011986;28;20036;-78
2020/12/07 13:07:39;;;;;;;9.20;3.58;;;6.10;90.20;;;;;;5027320;28;20137;-80
2020/12/07 13:10:05;;;;;;;7.15;3.50;;;6.10;90.00;;;;;;5014006;28;20089;-79
2020/12/07 13:12:31;;;;;;;4.43;3.10;;;6.00;89.20;;;;;;5017366;28;20058;-79
2020/12/07 13:14:56;;;;;;;5.18;2.63;;;6.00;89.70;;;;;;5017293;28;20037;-79
2020/12/07 13:17:25;;;;;;;9.43;3.72;;;5.90;90.40;;;;;;5009247;28;20053;-79
2020/12/07 13:19:51;;;;;;;6.43;3.35;;;5.80;90.20;;;;;;5013322;28;20042;-79
2020/12/07 13:24:58;;;;;;;7.78;3.65;;;5.80;90.70;;;;;;5014945;28;20076;-80
2020/12/07 13:27:47;;;;;;;7.38;2.83;;;5.60;90.00;;;;;;5018361;28;20046;-80
2020/12/07 13:30:14;;;;;;;7.10;3.70;;;5.70;90.80;;;;;;5015960;28;20121;-78
2020/12/07 13:32:40;;;;;;;8.35;3.95;;;5.70;90.80;;;;;;5020547;28;20041;-79
2020/12/07 13:35:05;;;;;;;5.28;2.70;;;5.70;91.30;;;;;;5024570;28;20120;-79
2020/12/07 13:37:31;;;;;;;5.97;2.83;;;5.70;90.40;;;;;;5017556;28;20344;-79
2020/12/07 13:39:57;;;;;;;9.43;3.58;;;5.70;91.10;;;;;;5017498;28;20049;-78
2020/12/07 13:42:22;;;;;;;8.35;3.50;;;5.80;90.40;;;;;;5017228;28;20077;-79
2020/12/07 13:44:48;;;;;;;9.68;2.95;;;5.70;90.50;;;;;;5017348;28;20033;-78
2020/12/07 13:47:14;;;;;;;7.05;3.25;;;5.70;90.70;;;;;;5015805;28;21080;-78
2020/12/07 13:49:39;;;;;;;11.25;3.95;;;5.80;90.70;;;;;;5019765;28;20064;-78
2020/12/07 13:52:09;;;;;;;5.55;3.25;;;5.70;90.90;;;;;;5015167;28;20495;-77
2020/12/07 13:54:34;;;;;;;6.40;3.13;;;5.80;90.40;;;;;;5015754;28;20486;-78
2020/12/07 13:57:00;;;;;;;6.05;3.28;;;5.70;90.90;;;;;;5008878;28;20436;-77
2020/12/07 13:59:26;;;;;;;12.65;3.13;;;5.70;90.20;;;;;;5012149;28;20045;-81
2020/12/07 14:01:52;;;;;;;5.82;2.75;;;5.60;90.10;;;;;;5023426;28;20128;-80
2020/12/07 14:06:50;;;;;;;7.85;3.40;;;5.70;90.50;;;;;;5028237;28;20030;-78
2020/12/07 14:09:16;;;;;;;5.95;2.95;;;5.70;90.50;;;;;;5019175;28;20037;-79
2020/12/07 14:11:51;;;;;;;6.40;3.08;;;5.60;90.40;;;;;;5016995;28;20275;-78
2020/12/07 14:14:18;;;;;;;4.25;2.35;;;5.80;91.20;;;;;;5018526;28;20053;-80
2020/12/07 14:16:47;;;;;;;4.18;2.17;;;5.70;90.10;;;;;;5012817;28;20034;-79
2020/12/07 14:19:19;;;;;;;4.03;2.42;;;5.60;89.90;;;;;;5012917;28;20099;-77
2020/12/07 14:24:26;;;;;;;5.85;1.95;;;5.60;90.20;;;;;;5019781;28;20095;-79
2020/12/07 14:40:09;;;;;;;3.53;1.85;;;5.30;88.10;;;;;;5013360;28;20088;-78
2020/12/07 14:42:36;;;;;;;4.65;2.38;;;5.20;89.10;;;;;;5018443;28;20034;-78
2020/12/07 14:45:05;;;;;;;2.55;1.60;;;5.10;89.80;;;;;;5029308;28;20045;-80
2020/12/07 14:47:30;;;;;;;4.05;2.15;;;5.00;87.90;;;;;;5030855;28;20057;-79
2020/12/07 14:50:05;;;;;;;9.32;2.33;;;5.00;88.00;;;;;;5020590;28;20038;-79
2020/12/07 14:52:31;;;;;;;9.50;1.77;;;4.90;88.10;;;;;;5017618;28;20030;-80
2020/12/07 14:55:02;;;;;;;5.25;1.60;;;4.90;88.70;;;;;;5014381;28;20038;-79
2020/12/07 14:57:39;;;;;;;2.70;1.52;;;4.90;88.70;;;;;;5026941;28;20095;-79
2020/12/07 15:13:56;;;;;;;14.65;2.45;;;4.70;88.90;;;;;;4972766;28;20057;-78
2020/12/07 15:16:24;;;;;;;7.28;2.80;;;4.70;88.90;;;;;;5001478;28;20447;-78
2020/12/07 15:18:51;;;;;;;6.03;2.80;;;4.70;89.80;;;;;;5018567;28;20550;-79
2020/12/07 15:21:17;;;;;;;4.18;2.00;;;4.30;90.20;;;;;;5022274;28;20068;-78